createdAt,value
2022-08-01T00:00:09.856Z,14.86
2022-08-01T00:02:39.263Z,14.81
2022-08-01T00:05:07.878Z,14.76
2022-08-01T00:07:35.905Z,14.69
2022-08-01T00:10:09.721Z,14.63
2022-08-01T00:12:39.385Z,14.57
2022-08-01T00:15:09.104Z,14.60
2022-08-01T00:17:36.460Z,14.60
2022-08-01T00:20:12.758Z,14.64
2022-08-01T00:22:39.887Z,14.62
2022-08-01T00:25:12.502Z,14.56
2022-08-01T00:27:39.423Z,14.56
2022-08-01T00:30:13.637Z,14.43
2022-08-01T00:32:45.142Z,14.53
2022-08-01T00:35:12.414Z,14.47
2022-08-01T00:37:39.291Z,14.42
2022-08-01T00:40:08.197Z,14.42
2022-08-01T00:42:40.258Z,14.38
2022-08-01T00:45:10.537Z,14.35
2022-08-01T00:47:37.690Z,14.26
2022-08-01T00:50:05.745Z,14.18
2022-08-01T00:52:34.708Z,14.22
2022-08-01T00:55:04.342Z,14.21
2022-08-01T00:58:02.300Z,14.19
2022-08-01T01:00:18.910Z,14.19
2022-08-01T01:02:54.278Z,14.15
2022-08-01T01:05:24.362Z,14.16
2022-08-01T01:08:09.025Z,14.14
2022-08-01T01:10:47.482Z,14.13
2022-08-01T01:13:21.670Z,14.08
2022-08-01T01:16:11.360Z,14.04
2022-08-01T01:19:01.531Z,13.95
2022-08-01T01:22:18.820Z,13.86
2022-08-01T01:25:13.007Z,13.92
2022-08-01T01:28:04.628Z,13.90
2022-08-01T01:30:34.070Z,13.86
2022-08-01T01:33:06.823Z,13.89
2022-08-01T01:35:42.933Z,13.92
2022-08-01T01:38:16.031Z,13.88
2022-08-01T01:40:44.773Z,13.87
2022-08-01T01:43:13.231Z,13.84
2022-08-01T01:45:42.459Z,13.78
2022-08-01T01:48:13.868Z,13.83
2022-08-01T01:50:43.362Z,13.73
2022-08-01T01:53:15.009Z,13.76
2022-08-01T01:55:49.329Z,13.76
2022-08-01T01:58:18.691Z,13.73
2022-08-01T02:00:47.791Z,13.70
2022-08-01T02:03:17.088Z,13.67
2022-08-01T02:05:45.014Z,13.62
2022-08-01T02:08:15.604Z,13.63
2022-08-01T02:11:05.399Z,13.61
2022-08-01T02:13:34.273Z,13.58
2022-08-01T02:16:03.139Z,13.55
2022-08-01T02:18:30.351Z,13.54
2022-08-01T02:21:00.144Z,13.54
2022-08-01T02:23:34.957Z,13.54
2022-08-01T02:26:09.389Z,13.51
2022-08-01T02:28:46.748Z,13.54
2022-08-01T02:31:18.097Z,13.47
2022-08-01T02:33:49.336Z,13.44
2022-08-01T02:36:30.276Z,13.35
2022-08-01T02:39:07.517Z,13.32
2022-08-01T02:41:39.433Z,13.37
2022-08-01T02:44:11.264Z,13.43
2022-08-01T02:46:42.045Z,13.41
2022-08-01T02:49:11.443Z,13.37
2022-08-01T02:51:40.922Z,13.36
2022-08-01T02:54:11.004Z,13.32
2022-08-01T02:56:39.315Z,13.31
2022-08-01T02:59:10.372Z,13.27
2022-08-01T03:01:42.144Z,13.28
2022-08-01T03:04:11.793Z,13.21
2022-08-01T03:06:40.201Z,13.19
2022-08-01T03:09:12.779Z,13.20
2022-08-01T03:11:42.847Z,13.22
2022-08-01T03:14:12.751Z,13.17
2022-08-01T03:16:43.129Z,13.14
2022-08-01T03:19:12.722Z,13.15
2022-08-01T03:21:41.522Z,13.11
2022-08-01T03:24:12.716Z,13.11
2022-08-01T03:26:40.442Z,13.01
2022-08-01T03:29:13.663Z,13.01
2022-08-01T03:31:44.622Z,12.97
2022-08-01T03:34:11.925Z,13.03
2022-08-01T03:36:50.074Z,13.05
2022-08-01T03:39:20.185Z,13.07
2022-08-01T03:41:57.110Z,13.05
2022-08-01T03:44:29.809Z,13.07
2022-08-01T03:47:03.443Z,13.08
2022-08-01T03:49:33.542Z,13.08
2022-08-01T03:52:05.775Z,13.15
2022-08-01T03:54:36.776Z,13.17
2022-08-01T03:57:04.022Z,13.18
2022-08-01T03:59:32.986Z,13.22
2022-08-01T04:02:00.196Z,13.26
2022-08-01T04:04:27.237Z,13.29
2022-08-01T04:06:55.193Z,13.35
2022-08-01T04:09:23.175Z,13.38
2022-08-01T04:11:51.233Z,13.43
2022-08-01T04:14:18.146Z,13.48
2022-08-01T04:16:45.068Z,13.53
2022-08-01T04:19:12.705Z,13.60
2022-08-01T04:21:39.716Z,13.72
2022-08-01T04:24:14.093Z,13.77
2022-08-01T04:26:44.512Z,13.85
2022-08-01T04:29:12.909Z,13.94
2022-08-01T04:31:43.274Z,14.05
2022-08-01T04:34:13.171Z,14.14
2022-08-01T04:36:43.063Z,14.24
2022-08-01T04:39:11.082Z,14.29
2022-08-01T04:41:39.611Z,14.38
2022-08-01T04:44:07.906Z,14.41
2022-08-01T04:46:36.061Z,14.49
2022-08-01T04:49:05.908Z,14.56
2022-08-01T04:51:32.825Z,14.66
2022-08-01T04:53:59.811Z,14.78
2022-08-01T04:56:26.698Z,14.86
2022-08-01T04:59:13.891Z,14.97
2022-08-01T05:01:51.837Z,15.07
2022-08-01T05:04:19.443Z,15.20
2022-08-01T05:06:46.280Z,15.29
2022-08-01T05:09:13.283Z,15.49
2022-08-01T05:11:40.171Z,15.63
2022-08-01T05:14:07.673Z,15.81
2022-08-01T05:16:34.617Z,15.95
2022-08-01T05:19:04.644Z,16.09
2022-08-01T05:21:34.623Z,16.19
2022-08-01T05:24:01.772Z,16.28
2022-08-01T05:26:29.102Z,16.37
2022-08-01T05:28:56.065Z,16.50
2022-08-01T05:31:23.011Z,16.63
2022-08-01T05:33:50.208Z,16.78
2022-08-01T05:36:17.153Z,16.89
2022-08-01T05:38:44.065Z,17.05
2022-08-01T05:41:12.041Z,17.36
2022-08-01T05:43:38.951Z,17.51
2022-08-01T05:46:05.847Z,17.77
2022-08-01T05:48:32.765Z,17.83
2022-08-01T05:50:59.753Z,18.01
2022-08-01T05:53:27.584Z,18.15
2022-08-01T05:55:54.509Z,18.48
2022-08-01T05:58:21.970Z,18.63
2022-08-01T06:00:48.893Z,18.88
2022-08-01T06:03:15.836Z,18.98
2022-08-01T06:05:42.688Z,19.03
2022-08-01T06:08:09.709Z,19.09
2022-08-01T06:10:37.066Z,19.22
2022-08-01T06:13:04.159Z,19.30
2022-08-01T06:15:32.360Z,19.37
2022-08-01T06:17:59.814Z,19.55
2022-08-01T06:20:27.686Z,19.78
2022-08-01T06:22:55.577Z,19.82
2022-08-01T06:25:23.560Z,19.96
2022-08-01T06:27:50.880Z,20.10
2022-08-01T06:30:18.014Z,20.25
2022-08-01T06:32:44.898Z,20.29
2022-08-01T06:35:11.956Z,20.51
2022-08-01T06:37:38.956Z,20.56
2022-08-01T06:40:16.633Z,20.71
2022-08-01T06:42:44.367Z,20.75
2022-08-01T06:45:13.487Z,20.83
2022-08-01T06:47:41.632Z,20.90
2022-08-01T06:50:11.319Z,21.04
2022-08-01T06:52:38.991Z,21.13
2022-08-01T06:55:06.379Z,21.20
2022-08-01T06:57:33.934Z,21.25
2022-08-01T07:00:12.164Z,21.44
2022-08-01T07:02:39.191Z,21.47
2022-08-01T07:05:06.729Z,21.57
2022-08-01T07:07:33.604Z,21.57
2022-08-01T07:10:00.782Z,21.79
2022-08-01T07:12:27.684Z,21.83
2022-08-01T07:14:57.745Z,21.91
2022-08-01T07:17:24.580Z,21.93
2022-08-01T07:19:51.647Z,22.02
2022-08-01T07:22:23.613Z,22.10
2022-08-01T07:24:54.450Z,22.21
2022-08-01T07:27:25.540Z,22.30
2022-08-01T07:29:53.659Z,22.51
2022-08-01T07:32:20.805Z,22.62
2022-08-01T07:34:47.731Z,22.69
2022-08-01T07:37:14.625Z,22.88
2022-08-01T07:39:41.805Z,22.90
2022-08-01T07:42:08.905Z,23.05
2022-08-01T07:44:36.458Z,23.04
2022-08-01T07:47:04.147Z,23.16
2022-08-01T07:49:33.907Z,23.28
2022-08-01T07:52:04.866Z,23.40
2022-08-01T07:54:34.401Z,23.47
2022-08-01T07:57:02.739Z,23.62
2022-08-01T07:59:30.644Z,23.80
2022-08-01T08:01:57.765Z,23.90
2022-08-01T08:04:24.834Z,24.14
2022-08-01T08:06:51.907Z,24.29
2022-08-01T08:09:18.949Z,24.54
2022-08-01T08:11:48.174Z,24.78
2022-08-01T08:14:16.852Z,24.95
2022-08-01T08:16:44.936Z,25.13
2022-08-01T08:19:12.963Z,25.23
2022-08-01T08:21:40.587Z,25.47
2022-08-01T08:24:25.968Z,25.72
2022-08-01T08:26:59.381Z,26.05
2022-08-01T08:29:28.558Z,25.98
2022-08-01T08:31:58.952Z,26.22
2022-08-01T08:34:27.383Z,26.49
2022-08-01T08:36:56.337Z,26.65
2022-08-01T08:39:24.127Z,27.18
2022-08-01T08:41:51.010Z,27.26
2022-08-01T08:44:19.490Z,26.87
2022-08-01T08:46:49.087Z,26.21
2022-08-01T08:49:28.082Z,25.91
2022-08-01T08:52:05.402Z,25.72
2022-08-01T08:54:33.585Z,25.42
2022-08-01T08:57:02.058Z,25.28
2022-08-01T08:59:29.693Z,25.08
2022-08-01T09:01:57.790Z,25.01
2022-08-01T09:04:26.825Z,24.92
2022-08-01T09:06:55.586Z,24.84
2022-08-01T09:09:23.228Z,24.83
2022-08-01T09:11:57.555Z,24.90
2022-08-01T09:14:28.399Z,24.92
2022-08-01T09:17:07.780Z,24.84
2022-08-01T09:19:42.032Z,24.86
2022-08-01T09:22:12.045Z,24.74
2022-08-01T09:24:40.999Z,24.72
2022-08-01T09:27:22.773Z,24.89
2022-08-01T09:30:01.084Z,24.90
2022-08-01T09:32:35.238Z,24.95
2022-08-01T09:35:30.684Z,24.89
2022-08-01T09:38:19.077Z,25.07
2022-08-01T09:40:52.102Z,25.26
2022-08-01T09:43:20.980Z,25.45
2022-08-01T09:45:50.537Z,25.65
2022-08-01T09:48:20.647Z,25.39
2022-08-01T09:50:52.672Z,25.85
2022-08-01T09:53:24.467Z,26.19
2022-08-01T09:56:10.260Z,26.44
2022-08-01T09:59:00.510Z,26.80
2022-08-01T10:01:35.921Z,26.91
2022-08-01T10:04:11.379Z,27.05
2022-08-01T10:06:40.043Z,27.19
2022-08-01T10:09:08.916Z,27.10
2022-08-01T10:11:40.285Z,26.94
2022-08-01T10:14:08.455Z,26.73
2022-08-01T10:16:40.296Z,26.72
2022-08-01T10:19:14.886Z,26.63
2022-08-01T10:21:58.390Z,26.33
2022-08-01T10:24:29.479Z,26.62
2022-08-01T10:27:08.117Z,26.56
2022-08-01T10:29:46.074Z,26.94
2022-08-01T10:32:25.705Z,27.09
2022-08-01T10:34:56.333Z,27.66
2022-08-01T10:37:23.875Z,27.72
2022-08-01T10:40:27.342Z,27.68
2022-08-01T10:42:46.069Z,27.77
2022-08-01T10:45:16.367Z,28.39
2022-08-01T10:47:54.579Z,29.16
2022-08-01T10:50:32.765Z,30.54
2022-08-01T10:53:15.293Z,31.07
2022-08-01T10:56:02.566Z,31.01
2022-08-01T10:58:39.783Z,32.09
2022-08-01T11:01:27.954Z,31.22
2022-08-01T11:04:15.980Z,31.36
2022-08-01T11:07:06.782Z,30.90
2022-08-01T11:09:51.682Z,31.75
2022-08-01T11:12:24.430Z,31.91
2022-08-01T11:15:02.509Z,32.39
2022-08-01T11:17:49.006Z,31.77
2022-08-01T11:20:24.740Z,32.88
2022-08-01T11:23:06.055Z,33.61
2022-08-01T11:26:06.323Z,32.66
2022-08-01T11:28:32.639Z,32.32
2022-08-01T11:31:11.835Z,31.66
2022-08-01T11:33:41.450Z,31.10
2022-08-01T11:36:11.758Z,31.12
2022-08-01T11:38:39.842Z,31.32
2022-08-01T11:41:21.124Z,32.25
2022-08-01T11:44:06.687Z,33.11
2022-08-01T11:46:46.646Z,33.84
2022-08-01T11:49:39.165Z,34.48
2022-08-01T11:52:17.157Z,34.88
2022-08-01T11:54:50.230Z,35.72
2022-08-01T11:57:34.599Z,36.51
2022-08-01T12:00:16.609Z,37.30
2022-08-01T12:02:45.680Z,37.27
2022-08-01T12:05:17.705Z,35.79
2022-08-01T12:07:47.381Z,35.15
2022-08-01T12:10:22.698Z,33.94
2022-08-01T12:13:04.917Z,32.72
2022-08-01T12:15:34.796Z,32.22
2022-08-01T12:18:10.800Z,31.18
2022-08-01T12:20:55.664Z,31.53
2022-08-01T12:23:24.111Z,31.05
2022-08-01T12:25:54.667Z,32.87
2022-08-01T12:28:22.401Z,35.06
2022-08-01T12:30:50.716Z,35.71
2022-08-01T12:33:22.125Z,34.85
2022-08-01T12:35:49.798Z,33.94
2022-08-01T12:38:18.514Z,34.16
2022-08-01T12:40:52.913Z,33.41
2022-08-01T12:43:28.581Z,32.40
2022-08-01T12:45:59.737Z,32.06
2022-08-01T12:48:27.881Z,32.27
2022-08-01T12:50:58.885Z,32.17
2022-08-01T12:53:39.754Z,31.70
2022-08-01T12:56:10.654Z,31.14
2022-08-01T12:58:37.808Z,31.66
2022-08-01T13:01:10.868Z,32.55
2022-08-01T13:03:38.492Z,34.68
2022-08-01T13:06:15.959Z,35.65
2022-08-01T13:08:44.568Z,35.45
2022-08-01T13:11:17.616Z,36.16
2022-08-01T13:13:50.571Z,34.90
2022-08-01T13:16:31.035Z,34.84
2022-08-01T13:19:06.937Z,34.25
2022-08-01T13:21:54.567Z,34.19
2022-08-01T13:24:30.339Z,34.38
2022-08-01T13:27:04.493Z,35.83
2022-08-01T13:29:33.708Z,36.91
2022-08-01T13:32:12.648Z,36.88
2022-08-01T13:35:08.663Z,35.48
2022-08-01T13:37:39.011Z,35.78
2022-08-01T13:40:08.532Z,35.75
2022-08-01T13:42:35.975Z,35.60
2022-08-01T13:45:04.551Z,36.63
2022-08-01T13:48:03.779Z,35.85
2022-08-01T13:50:28.802Z,36.29
2022-08-01T13:52:55.757Z,35.86
2022-08-01T13:55:22.687Z,35.97
2022-08-01T13:57:51.166Z,35.61
2022-08-01T14:00:18.300Z,34.80
2022-08-01T14:02:45.331Z,34.09
2022-08-01T14:05:12.421Z,32.96
2022-08-01T14:07:39.384Z,32.57
2022-08-01T14:10:19.435Z,31.97
2022-08-01T14:12:50.880Z,31.35
2022-08-01T14:15:36.501Z,31.30
2022-08-01T14:18:06.710Z,31.21
2022-08-01T14:20:35.297Z,30.91
2022-08-01T14:23:02.586Z,30.58
2022-08-01T14:26:02.978Z,31.00
2022-08-01T14:28:17.019Z,31.89
2022-08-01T14:30:44.202Z,33.37
2022-08-01T14:33:12.207Z,34.54
2022-08-01T14:36:01.768Z,35.08
2022-08-01T14:38:31.556Z,35.48
2022-08-01T14:41:00.723Z,35.53
2022-08-01T14:43:32.848Z,34.65
2022-08-01T14:46:04.655Z,35.91
2022-08-01T14:48:36.795Z,34.76
2022-08-01T14:51:04.181Z,34.61
2022-08-01T14:53:34.259Z,34.70
2022-08-01T14:56:04.840Z,35.36
2022-08-01T14:58:31.845Z,34.99
2022-08-01T15:00:59.572Z,33.94
2022-08-01T15:03:26.860Z,34.19
2022-08-01T15:05:54.209Z,34.06
2022-08-01T15:08:21.083Z,33.37
2022-08-01T15:10:47.986Z,34.00
2022-08-01T15:13:14.897Z,34.94
2022-08-01T15:15:41.809Z,35.34
2022-08-01T15:18:08.778Z,35.32
2022-08-01T15:20:36.136Z,35.67
2022-08-01T15:23:03.141Z,35.84
2022-08-01T15:25:41.429Z,35.09
2022-08-01T15:28:12.448Z,35.39
2022-08-01T15:30:40.012Z,34.59
2022-08-01T15:33:07.340Z,35.30
2022-08-01T15:35:34.742Z,35.33
2022-08-01T15:38:01.881Z,34.36
2022-08-01T15:40:29.469Z,33.47
2022-08-01T15:42:56.531Z,34.52
2022-08-01T15:45:46.502Z,34.22
2022-08-01T15:48:10.536Z,33.94
2022-08-01T15:50:39.348Z,32.94
2022-08-01T15:53:07.418Z,32.65
2022-08-01T15:55:38.538Z,31.82
2022-08-01T15:58:06.213Z,32.10
2022-08-01T16:00:38.708Z,31.35
2022-08-01T16:03:07.931Z,31.37
2022-08-01T16:05:41.029Z,31.03
2022-08-01T16:08:12.402Z,31.02
2022-08-01T16:10:39.456Z,30.50
2022-08-01T16:13:07.132Z,30.34
2022-08-01T16:15:39.164Z,30.47
2022-08-01T16:18:07.948Z,30.09
2022-08-01T16:20:35.397Z,30.17
2022-08-01T16:23:02.611Z,30.07
2022-08-01T16:25:29.539Z,30.03
2022-08-01T16:27:56.978Z,29.83
2022-08-01T16:30:24.961Z,29.62
2022-08-01T16:32:59.365Z,29.52
2022-08-01T16:35:32.670Z,29.69
2022-08-01T16:38:04.573Z,29.72
2022-08-01T16:40:32.032Z,29.77
2022-08-01T16:43:14.709Z,29.73
2022-08-01T16:45:43.229Z,29.91
2022-08-01T16:48:18.595Z,29.89
2022-08-01T16:50:49.421Z,29.80
2022-08-01T16:53:18.216Z,29.88
2022-08-01T16:55:49.777Z,30.19
2022-08-01T16:58:23.511Z,29.82
2022-08-01T17:00:56.961Z,29.18
2022-08-01T17:03:51.620Z,29.20
2022-08-01T17:06:15.327Z,28.91
2022-08-01T17:08:46.469Z,28.81
2022-08-01T17:11:14.610Z,28.61
2022-08-01T17:13:41.642Z,28.52
2022-08-01T17:16:09.402Z,28.31
2022-08-01T17:18:36.407Z,28.19
2022-08-01T17:21:03.492Z,28.13
2022-08-01T17:23:31.938Z,27.91
2022-08-01T17:25:59.415Z,27.98
2022-08-01T17:28:26.414Z,27.86
2022-08-01T17:30:53.486Z,27.69
2022-08-01T17:33:20.648Z,27.53
2022-08-01T17:35:47.596Z,27.39
2022-08-01T17:38:14.720Z,27.30
2022-08-01T17:40:41.771Z,27.24
2022-08-01T17:43:09.045Z,27.24
2022-08-01T17:45:50.246Z,27.00
2022-08-01T17:48:19.354Z,26.91
2022-08-01T17:50:48.487Z,26.88
2022-08-01T17:53:21.076Z,26.75
2022-08-01T17:55:53.547Z,26.63
2022-08-01T17:58:33.047Z,26.51
2022-08-01T18:01:10.223Z,26.44
2022-08-01T18:03:40.922Z,26.39
2022-08-01T18:06:09.456Z,26.29
2022-08-01T18:08:36.478Z,26.21
2022-08-01T18:11:03.602Z,26.14
2022-08-01T18:13:30.501Z,26.10
2022-08-01T18:15:57.722Z,26.06
2022-08-01T18:18:33.043Z,26.06
2022-08-01T18:21:01.933Z,26.01
2022-08-01T18:23:29.093Z,25.98
2022-08-01T18:25:55.990Z,25.92
2022-08-01T18:28:33.676Z,25.90
2022-08-01T18:31:03.733Z,25.85
2022-08-01T18:33:30.735Z,25.72
2022-08-01T18:36:03.880Z,25.62
2022-08-01T18:38:35.242Z,25.54
2022-08-01T18:41:05.968Z,25.47
2022-08-01T18:43:32.870Z,25.39
2022-08-01T18:46:01.340Z,25.26
2022-08-01T18:48:28.206Z,25.21
2022-08-01T18:50:55.346Z,25.10
2022-08-01T18:53:23.991Z,24.95
2022-08-01T18:55:51.180Z,24.86
2022-08-01T18:58:18.682Z,24.72
2022-08-01T19:00:45.647Z,24.71
2022-08-01T19:03:13.788Z,24.69
2022-08-01T19:05:40.774Z,24.54
2022-08-01T19:08:08.168Z,24.47
2022-08-01T19:10:39.869Z,24.44
2022-08-01T19:13:08.169Z,24.13
2022-08-01T19:15:36.030Z,24.10
2022-08-01T19:18:04.223Z,23.96
2022-08-01T19:20:31.359Z,23.91
2022-08-01T19:22:58.606Z,23.82
2022-08-01T19:25:25.894Z,23.86
2022-08-01T19:27:56.327Z,23.83
2022-08-01T19:30:23.800Z,23.79
2022-08-01T19:32:51.177Z,23.75
2022-08-01T19:35:18.111Z,23.68
2022-08-01T19:37:50.891Z,23.69
2022-08-01T19:40:27.546Z,23.67
2022-08-01T19:42:59.681Z,23.54
2022-08-01T19:45:29.868Z,23.50
2022-08-01T19:47:58.017Z,23.45
2022-08-01T19:50:29.171Z,23.41
2022-08-01T19:52:57.697Z,23.35
2022-08-01T19:55:25.403Z,23.24
2022-08-01T20:00:42.762Z,23.18
2022-08-01T20:03:10.177Z,23.25
2022-08-01T20:05:38.800Z,23.27
2022-08-01T20:08:09.823Z,23.27
2022-08-01T20:10:39.947Z,23.25
2022-08-01T20:13:09.644Z,23.26
2022-08-01T20:15:38.480Z,23.19
2022-08-01T20:18:06.098Z,23.15
2022-08-01T20:20:35.328Z,23.07
2022-08-01T20:23:03.429Z,23.02
2022-08-01T20:25:40.228Z,22.93
2022-08-01T20:28:09.774Z,22.85
2022-08-01T20:30:37.630Z,22.74
2022-08-01T20:33:06.842Z,22.67
2022-08-01T20:35:51.033Z,22.59
2022-08-01T20:38:27.564Z,22.56
2022-08-01T20:40:59.987Z,22.53
2022-08-01T20:43:27.750Z,22.43
2022-08-01T20:45:55.802Z,22.38
2022-08-01T20:48:24.653Z,22.36
2022-08-01T20:51:10.283Z,22.33
2022-08-01T20:53:41.917Z,22.34
2022-08-01T20:56:29.980Z,22.32
2022-08-01T20:59:55.144Z,22.42
2022-08-01T21:02:11.763Z,22.35
2022-08-01T21:04:47.121Z,22.36
2022-08-01T21:07:28.802Z,22.31
2022-08-01T21:10:11.770Z,22.26
2022-08-01T21:13:00.326Z,22.23
2022-08-01T21:15:33.321Z,22.18
2022-08-01T21:18:15.184Z,22.11
2022-08-01T21:21:02.988Z,22.06
2022-08-01T21:24:05.789Z,21.95
2022-08-01T21:26:35.887Z,21.89
2022-08-01T21:29:06.905Z,21.81
2022-08-01T21:31:40.941Z,21.82
2022-08-01T21:34:09.278Z,21.80
2022-08-01T21:36:36.776Z,21.75
2022-08-01T21:39:07.580Z,21.75
2022-08-01T21:42:03.964Z,21.72
2022-08-01T21:44:28.542Z,21.69
2022-08-01T21:47:00.003Z,21.63
2022-08-01T21:49:27.805Z,21.65
2022-08-01T21:52:01.289Z,21.56
2022-08-01T21:54:41.607Z,21.50
2022-08-01T21:57:11.492Z,21.42
2022-08-01T21:59:59.707Z,21.36
2022-08-01T22:02:36.697Z,21.34
2022-08-01T22:05:10.484Z,21.28
2022-08-01T22:07:44.908Z,21.18
2022-08-01T22:10:16.569Z,21.08
2022-08-01T22:12:44.367Z,20.96
2022-08-01T22:15:12.731Z,20.94
2022-08-01T22:17:40.758Z,20.97
2022-08-01T22:20:09.513Z,20.92
2022-08-01T22:22:50.744Z,20.91
2022-08-01T22:25:20.607Z,20.96
2022-08-01T22:28:06.312Z,20.92
2022-08-01T22:30:41.743Z,20.90
2022-08-01T22:33:16.056Z,20.83
2022-08-01T22:35:47.232Z,20.78
2022-08-01T22:38:14.549Z,20.74
2022-08-01T22:40:50.042Z,20.69
2022-08-01T22:43:38.285Z,20.60
2022-08-01T22:46:23.077Z,20.60
2022-08-01T22:48:53.772Z,20.58
2022-08-01T22:51:54.682Z,20.60
2022-08-01T22:54:39.393Z,20.58
2022-08-01T22:57:12.441Z,20.56
2022-08-01T22:59:53.626Z,20.44
2022-08-01T23:02:21.988Z,20.38
2022-08-01T23:04:55.164Z,20.40
2022-08-01T23:07:31.524Z,20.37
2022-08-01T23:09:58.734Z,20.32
2022-08-01T23:12:27.650Z,20.22
2022-08-01T23:14:57.027Z,20.15
2022-08-01T23:17:28.840Z,20.14
2022-08-01T23:19:58.973Z,20.08
2022-08-01T23:22:36.321Z,20.07
2022-08-01T23:25:08.885Z,20.08
2022-08-01T23:27:54.270Z,20.01
2022-08-01T23:30:31.045Z,20.02
2022-08-01T23:32:58.343Z,20.00
2022-08-01T23:35:26.252Z,19.96
2022-08-01T23:37:53.905Z,19.76
2022-08-01T23:40:21.075Z,19.81
2022-08-01T23:42:55.875Z,19.76
2022-08-01T23:45:23.415Z,19.68
2022-08-01T23:47:50.719Z,19.62
2022-08-01T23:50:17.648Z,19.56
2022-08-01T23:52:48.369Z,19.46
2022-08-01T23:55:17.317Z,19.30
2022-08-01T23:57:44.443Z,19.30
